createdAt,value
2019-03-13T00:01:01.992Z,94119.35
2019-03-13T00:04:09.773Z,94116.17
2019-03-13T00:07:17.326Z,94125.62
2019-03-13T00:10:25.124Z,94129.16
2019-03-13T00:13:32.413Z,94136.01
2019-03-13T00:16:39.828Z,94131.88
2019-03-13T00:19:47.562Z,94139.70
2019-03-13T00:22:54.947Z,94135.36
2019-03-13T00:26:02.479Z,94141.70
2019-03-13T00:29:09.856Z,94139.37
2019-03-13T00:32:17.455Z,94134.52
2019-03-13T00:35:24.840Z,94134.52
2019-03-13T00:38:32.726Z,94131.34
2019-03-13T00:41:40.720Z,94129.95
2019-03-13T00:44:48.286Z,94115.57
2019-03-13T00:47:55.571Z,94098.95
2019-03-13T00:51:03.576Z,94092.31
2019-03-13T00:54:10.855Z,94091.93
2019-03-13T00:57:18.291Z,94085.33
2019-03-13T01:00:45.879Z,94075.45
2019-03-13T01:04:00.237Z,94072.19
2019-03-13T01:07:09.796Z,94059.16
2019-03-13T01:10:17.927Z,94049.33
2019-03-13T01:13:25.697Z,94047.12
2019-03-13T01:16:33.289Z,94052.51
2019-03-13T01:19:40.729Z,94070.61
2019-03-13T01:22:48.033Z,94070.92
2019-03-13T01:25:55.879Z,94074.06
2019-03-13T01:29:03.844Z,94087.48
2019-03-13T01:32:34.223Z,94089.59
2019-03-13T01:35:50.048Z,94094.38
2019-03-13T01:38:58.120Z,94105.25
2019-03-13T01:42:05.716Z,94117.28
2019-03-13T01:45:15.064Z,94125.34
2019-03-13T01:48:22.907Z,94131.23
2019-03-13T01:51:30.843Z,94142.89
2019-03-13T01:54:38.592Z,94155.77
2019-03-13T01:57:45.872Z,94156.87
2019-03-13T02:00:53.617Z,94157.20
2019-03-13T02:04:00.991Z,94163.00
2019-03-13T02:07:08.929Z,94162.25
2019-03-13T02:10:16.657Z,94152.99
2019-03-13T02:13:24.216Z,94170.70
2019-03-13T02:16:32.060Z,94181.66
2019-03-13T02:19:39.682Z,94183.00
2019-03-13T02:22:47.325Z,94189.81
2019-03-13T02:25:54.692Z,94198.42
2019-03-13T02:29:02.351Z,94197.09
2019-03-13T02:32:09.664Z,94198.90
2019-03-13T02:35:17.450Z,94201.22
2019-03-13T02:38:24.904Z,94215.11
2019-03-13T02:41:32.547Z,94219.20
2019-03-13T02:44:39.810Z,94227.36
2019-03-13T02:47:47.437Z,94238.05
2019-03-13T02:50:54.691Z,94235.52
2019-03-13T02:54:02.326Z,94252.81
2019-03-13T02:57:09.489Z,94266.02
2019-03-13T03:00:18.233Z,94255.66
2019-03-13T03:03:34.060Z,94281.52
2019-03-13T03:06:41.382Z,94299.17
2019-03-13T03:09:48.539Z,94289.91
2019-03-13T03:12:55.845Z,94305.59
2019-03-13T03:16:03.316Z,94308.28
2019-03-13T03:19:10.502Z,94328.20
2019-03-13T03:22:17.985Z,94331.50
2019-03-13T03:25:25.788Z,94350.94
2019-03-13T03:28:33.313Z,94368.23
2019-03-13T03:31:40.822Z,94374.16
2019-03-13T03:34:48.192Z,94395.14
2019-03-13T03:37:55.558Z,94399.11
2019-03-13T03:41:03.576Z,94397.27
2019-03-13T03:44:11.230Z,94408.31
2019-03-13T03:47:18.612Z,94410.20
2019-03-13T03:50:25.969Z,94409.27
2019-03-13T03:53:33.376Z,94426.55
2019-03-13T03:56:40.862Z,94438.14
2019-03-13T03:59:48.250Z,94453.64
2019-03-13T04:02:55.762Z,94448.43
2019-03-13T04:06:03.340Z,94465.16
2019-03-13T04:09:10.712Z,94476.84
2019-03-13T04:12:17.898Z,94490.72
2019-03-13T04:15:25.424Z,94501.62
2019-03-13T04:18:33.113Z,94491.20
2019-03-13T04:21:41.095Z,94505.03
2019-03-13T04:24:49.342Z,94499.38
2019-03-13T04:27:57.139Z,94504.89
2019-03-13T04:31:04.962Z,94516.24
2019-03-13T04:34:12.657Z,94513.70
2019-03-13T04:37:19.934Z,94526.70
2019-03-13T04:40:27.875Z,94529.10
2019-03-13T04:43:35.201Z,94540.34
2019-03-13T04:46:42.371Z,94534.11
2019-03-13T04:49:49.534Z,94547.75
2019-03-13T04:52:57.007Z,94544.23
2019-03-13T04:56:04.750Z,94551.05
2019-03-13T04:59:12.044Z,94556.18
2019-03-13T05:02:19.673Z,94556.26
2019-03-13T05:05:54.430Z,94557.03
2019-03-13T05:09:37.452Z,94559.29
2019-03-13T05:12:44.614Z,94557.33
2019-03-13T05:15:52.660Z,94565.03
2019-03-13T05:19:00.150Z,94569.52
2019-03-13T05:22:07.877Z,94571.31
2019-03-13T05:25:15.557Z,94588.34
2019-03-13T05:28:26.236Z,94585.71
2019-03-13T05:32:11.903Z,94600.05
2019-03-13T05:35:19.579Z,94600.55
2019-03-13T05:38:27.011Z,94608.48
2019-03-13T05:41:34.483Z,94611.57
2019-03-13T05:44:41.652Z,94616.66
2019-03-13T05:47:49.138Z,94622.50
2019-03-13T05:50:56.625Z,94628.45
2019-03-13T05:54:04.101Z,94642.04
2019-03-13T05:57:11.374Z,94639.05
2019-03-13T06:00:19.873Z,94649.72
2019-03-13T06:03:27.028Z,94652.09
2019-03-13T06:06:34.195Z,94653.70
2019-03-13T06:09:41.455Z,94659.63
2019-03-13T06:12:48.838Z,94656.30
2019-03-13T06:15:56.099Z,94650.80
2019-03-13T06:19:03.751Z,94667.45
2019-03-13T06:22:10.912Z,94673.69
2019-03-13T06:25:18.388Z,94676.53
2019-03-13T06:28:25.749Z,94687.57
2019-03-13T06:31:33.028Z,94681.93
2019-03-13T06:34:40.295Z,94692.22
2019-03-13T06:37:47.918Z,94691.90
2019-03-13T06:40:55.294Z,94691.37
2019-03-13T06:44:02.992Z,94694.98
2019-03-13T06:47:10.691Z,94695.45
2019-03-13T06:50:18.276Z,94690.94
2019-03-13T06:53:25.690Z,94690.25
2019-03-13T06:56:32.989Z,94696.31
2019-03-13T06:59:58.647Z,94686.75
2019-03-13T07:03:13.276Z,94690.29
2019-03-13T07:06:35.200Z,94691.77
2019-03-13T07:13:12.811Z,94695.84
2019-03-13T07:16:30.576Z,94705.30
2019-03-13T07:20:03.771Z,94709.16
2019-03-13T07:23:31.783Z,94694.28
2019-03-13T07:26:46.847Z,94699.72
2019-03-13T07:29:59.833Z,94697.41
2019-03-13T07:33:28.097Z,94700.66
2019-03-13T07:37:00.458Z,94690.30
2019-03-13T07:40:33.848Z,94698.05
2019-03-13T07:44:01.013Z,94700.20
2019-03-13T07:47:17.758Z,94697.44
2019-03-13T07:50:43.513Z,94695.41
2019-03-13T07:54:08.562Z,94697.63
2019-03-13T07:57:41.633Z,94697.38
2019-03-13T08:01:00.922Z,94696.52
2019-03-13T08:04:43.048Z,94695.26
2019-03-13T08:08:08.774Z,94704.86
2019-03-13T08:11:39.729Z,94709.59
2019-03-13T08:15:05.392Z,94716.72
2019-03-13T08:18:44.768Z,94702.80
2019-03-13T08:22:03.329Z,94702.62
2019-03-13T08:25:24.746Z,94708.58
2019-03-13T08:28:56.682Z,94704.41
2019-03-13T08:32:19.483Z,94695.31
2019-03-13T08:35:52.792Z,94691.83
2019-03-13T08:39:19.601Z,94701.44
2019-03-13T08:42:32.390Z,94700.48
2019-03-13T08:46:02.189Z,94690.74
2019-03-13T08:49:16.213Z,94693.83
2019-03-13T08:52:29.251Z,94691.47
2019-03-13T08:55:44.415Z,94681.09
2019-03-13T08:58:57.438Z,94677.02
2019-03-13T09:02:11.365Z,94682.98
2019-03-13T09:05:25.770Z,94682.00
2019-03-13T09:08:49.342Z,94687.40
2019-03-13T09:12:03.561Z,94679.81
2019-03-13T09:15:18.723Z,94677.48
2019-03-13T09:18:38.478Z,94680.03
2019-03-13T09:21:53.480Z,94674.68
2019-03-13T09:25:19.236Z,94663.70
2019-03-13T09:28:37.165Z,94672.57
2019-03-13T09:32:07.301Z,94662.88
2019-03-13T09:35:40.107Z,94658.84
2019-03-13T09:38:55.665Z,94646.73
2019-03-13T09:42:22.512Z,94655.17
2019-03-13T09:45:43.302Z,94640.23
2019-03-13T09:49:01.990Z,94648.92
2019-03-13T09:52:27.446Z,94638.91
2019-03-13T09:55:44.953Z,94636.44
2019-03-13T09:59:42.647Z,94641.60
2019-03-13T10:03:04.014Z,94648.36
2019-03-13T10:06:33.790Z,94640.54
2019-03-13T10:09:51.486Z,94632.38
2019-03-13T10:13:21.684Z,94635.13
2019-03-13T10:16:54.260Z,94644.84
2019-03-13T10:20:33.231Z,94639.70
2019-03-13T10:24:00.177Z,94638.42
2019-03-13T10:27:23.438Z,94632.03
2019-03-13T10:30:59.204Z,94637.86
2019-03-13T10:34:25.136Z,94638.85
2019-03-13T10:37:40.400Z,94632.14
2019-03-13T10:41:07.323Z,94621.22
2019-03-13T10:44:43.414Z,94612.15
2019-03-13T10:48:10.337Z,94608.88
2019-03-13T10:51:36.080Z,94595.02
2019-03-13T10:55:00.422Z,94587.98
2019-03-13T10:58:26.545Z,94573.72
2019-03-13T11:01:59.403Z,94583.25
2019-03-13T11:05:26.659Z,94574.94
2019-03-13T11:08:56.486Z,94565.48
2019-03-13T11:12:17.791Z,94573.81
2019-03-13T11:15:38.013Z,94565.73
2019-03-13T11:18:53.798Z,94562.14
2019-03-13T11:22:15.222Z,94559.03
2019-03-13T11:26:00.286Z,94567.39
2019-03-13T11:29:26.144Z,94560.99
2019-03-13T11:32:52.147Z,94553.16
2019-03-13T11:36:21.959Z,94555.25
2019-03-13T11:39:37.872Z,94552.27
2019-03-13T11:42:55.918Z,94554.52
2019-03-13T11:46:29.194Z,94546.67
2019-03-13T11:49:51.102Z,94556.11
2019-03-13T11:53:04.665Z,94556.16
2019-03-13T11:56:30.712Z,94559.39
2019-03-13T11:59:57.589Z,94568.86
2019-03-13T12:03:11.830Z,94597.66
2019-03-13T12:06:33.786Z,94594.81
2019-03-13T12:09:59.623Z,94579.53
2019-03-13T12:13:32.965Z,94577.52
2019-03-13T12:16:51.368Z,94554.22
2019-03-13T12:20:14.670Z,94535.58
2019-03-13T12:23:42.194Z,94531.13
2019-03-13T12:27:07.790Z,94525.44
2019-03-13T12:30:34.127Z,94533.94
2019-03-13T12:33:53.915Z,94521.84
2019-03-13T12:37:12.390Z,94509.41
2019-03-13T12:40:48.643Z,94520.45
2019-03-13T12:44:22.125Z,94507.59
2019-03-13T12:47:49.150Z,94503.08
2019-03-13T12:51:04.390Z,94507.95
2019-03-13T12:54:37.559Z,94483.55
2019-03-13T12:58:06.800Z,94491.96
2019-03-13T13:01:36.077Z,94503.78
2019-03-13T13:04:54.626Z,94516.28
2019-03-13T13:08:21.554Z,94534.83
2019-03-13T13:11:49.344Z,94533.91
2019-03-13T13:15:16.298Z,94510.49
2019-03-13T13:18:52.505Z,94506.53
2019-03-13T13:22:00.338Z,94495.17
2019-03-13T13:25:08.475Z,94478.06
2019-03-13T13:28:16.700Z,94482.73
2019-03-13T13:31:24.594Z,94472.05
2019-03-13T13:34:33.093Z,94474.27
2019-03-13T13:37:40.496Z,94465.84
2019-03-13T13:40:48.388Z,94468.20
2019-03-13T13:43:55.949Z,94465.41
2019-03-13T13:47:05.041Z,94461.80
2019-03-13T13:50:12.503Z,94468.89
2019-03-13T13:53:20.150Z,94457.56
2019-03-13T13:56:27.511Z,94451.18
2019-03-13T13:59:35.215Z,94456.72
2019-03-13T14:02:43.510Z,94451.58
2019-03-13T14:05:52.474Z,94453.19
2019-03-13T14:09:00.180Z,94460.37
2019-03-13T14:12:09.793Z,94484.69
2019-03-13T14:15:17.601Z,94546.69
2019-03-13T14:18:25.609Z,94542.24
2019-03-13T14:21:33.413Z,94507.98
2019-03-13T14:24:42.383Z,94516.62
2019-03-13T14:27:50.164Z,94519.78
2019-03-13T14:30:58.342Z,94518.58
2019-03-13T14:34:06.022Z,94518.68
2019-03-13T14:37:14.145Z,94517.13
2019-03-13T14:40:21.662Z,94521.42
2019-03-13T14:43:29.827Z,94520.22
2019-03-13T14:46:37.282Z,94506.92
2019-03-13T14:49:45.854Z,94507.55
2019-03-13T14:52:53.674Z,94515.33
2019-03-13T14:56:01.621Z,94518.45
2019-03-13T14:59:09.728Z,94518.45
2019-03-13T15:02:17.326Z,94507.77
2019-03-13T15:05:24.890Z,94502.64
2019-03-13T15:08:32.696Z,94511.27
2019-03-13T15:11:40.782Z,94511.09
2019-03-13T15:14:49.485Z,94516.06
2019-03-13T15:17:57.435Z,94524.34
2019-03-13T15:21:05.318Z,94529.77
2019-03-13T15:24:13.300Z,94516.91
2019-03-13T15:27:21.009Z,94509.38
2019-03-13T15:30:28.691Z,94517.33
2019-03-13T15:33:37.027Z,94488.70
2019-03-13T15:36:44.769Z,94512.25
2019-03-13T15:39:52.558Z,94516.42
2019-03-13T15:43:03.493Z,94523.66
2019-03-13T15:46:11.497Z,94512.40
2019-03-13T15:49:19.219Z,94514.19
2019-03-13T15:52:27.211Z,94497.00
2019-03-13T15:58:49.920Z,94504.92
2019-03-13T16:01:57.921Z,94487.06
2019-03-13T16:05:05.769Z,94502.68
2019-03-13T16:08:13.220Z,94498.15
2019-03-13T16:11:21.203Z,94489.88
2019-03-13T16:14:29.027Z,94484.19
2019-03-13T16:17:37.043Z,94487.98
2019-03-13T16:20:45.605Z,94489.06
2019-03-13T16:23:53.326Z,94494.23
2019-03-13T16:27:01.187Z,94490.87
2019-03-13T16:30:14.254Z,94494.81
2019-03-13T16:33:23.087Z,94503.55
2019-03-13T16:36:30.983Z,94508.75
2019-03-13T16:39:41.165Z,94499.57
2019-03-13T16:42:49.428Z,94494.58
2019-03-13T16:45:57.790Z,94505.16
2019-03-13T16:49:05.795Z,94498.80
2019-03-13T16:52:13.495Z,94491.62
2019-03-13T16:55:21.393Z,94497.20
2019-03-13T16:58:29.393Z,94492.09
2019-03-13T17:01:36.935Z,94498.31
2019-03-13T17:04:44.914Z,94485.45
2019-03-13T17:07:53.248Z,94496.78
2019-03-13T17:11:01.146Z,94495.52
2019-03-13T17:14:08.858Z,94505.56
2019-03-13T17:17:16.817Z,94507.81
2019-03-13T17:20:26.415Z,94506.39
2019-03-13T17:23:34.203Z,94517.55
2019-03-13T17:26:41.721Z,94517.66
2019-03-13T17:29:49.195Z,94521.02
2019-03-13T17:32:56.989Z,94518.81
2019-03-13T17:36:05.344Z,94522.56
2019-03-13T17:39:12.632Z,94507.03
2019-03-13T17:42:20.216Z,94511.55
2019-03-13T17:45:28.254Z,94519.25
2019-03-13T17:48:36.606Z,94514.72
2019-03-13T17:51:44.246Z,94505.84
2019-03-13T17:54:51.906Z,94512.95
2019-03-13T17:57:59.509Z,94511.92
2019-03-13T18:01:07.201Z,94515.05
2019-03-13T18:04:14.619Z,94521.73
2019-03-13T18:07:22.168Z,94525.61
2019-03-13T18:10:30.129Z,94521.37
2019-03-13T18:13:38.005Z,94526.22
2019-03-13T18:16:45.923Z,94509.97
2019-03-13T18:19:53.820Z,94516.56
2019-03-13T18:23:01.442Z,94516.20
2019-03-13T18:26:09.047Z,94512.63
2019-03-13T18:29:16.459Z,94518.58
2019-03-13T18:32:24.124Z,94516.77
2019-03-13T18:35:31.633Z,94512.33
2019-03-13T18:38:39.170Z,94520.58
2019-03-13T18:41:46.498Z,94529.02
2019-03-13T18:44:54.221Z,94532.58
2019-03-13T18:48:01.588Z,94534.22
2019-03-13T18:51:08.894Z,94533.92
2019-03-13T18:54:16.406Z,94534.77
2019-03-13T18:57:24.182Z,94527.28
2019-03-13T19:00:32.821Z,94528.87
2019-03-13T19:03:40.393Z,94524.55
2019-03-13T19:06:48.265Z,94520.44
2019-03-13T19:09:55.909Z,94523.84
2019-03-13T19:13:03.912Z,94523.20
2019-03-13T19:16:11.819Z,94523.48
2019-03-13T19:19:22.665Z,94526.48
2019-03-13T19:22:30.334Z,94526.68
2019-03-13T19:25:38.035Z,94523.52
2019-03-13T19:28:45.251Z,94529.74
2019-03-13T19:31:52.608Z,94528.72
2019-03-13T19:35:00.406Z,94526.88
2019-03-13T19:38:08.099Z,94531.13
2019-03-13T19:41:15.611Z,94524.41
2019-03-13T19:44:22.864Z,94525.91
2019-03-13T19:47:30.587Z,94527.87
2019-03-13T19:50:38.306Z,94531.20
2019-03-13T19:53:45.583Z,94518.80
2019-03-13T19:56:53.057Z,94515.63
2019-03-13T20:00:00.610Z,94521.69
2019-03-13T20:03:08.683Z,94522.22
2019-03-13T20:06:16.291Z,94522.88
2019-03-13T20:09:23.562Z,94519.02
2019-03-13T20:12:31.881Z,94519.40
2019-03-13T20:15:39.771Z,94520.17
2019-03-13T20:18:49.683Z,94527.60
2019-03-13T20:21:56.778Z,94519.89
2019-03-13T20:25:05.130Z,94525.68
2019-03-13T20:28:13.537Z,94512.42
2019-03-13T20:31:21.922Z,94516.44
2019-03-13T20:34:29.756Z,94520.02
2019-03-13T20:37:37.410Z,94511.06
2019-03-13T20:40:45.068Z,94512.17
2019-03-13T20:43:52.698Z,94519.92
2019-03-13T20:47:00.617Z,94514.84
2019-03-13T20:50:08.836Z,94516.93
2019-03-13T20:53:17.404Z,94520.53
2019-03-13T20:56:24.841Z,94515.38
2019-03-13T20:59:32.901Z,94513.67
2019-03-13T21:02:40.821Z,94512.99
2019-03-13T21:05:48.403Z,94509.12
2019-03-13T21:08:56.163Z,94516.64
2019-03-13T21:12:04.329Z,94520.83
2019-03-13T21:15:12.640Z,94510.27
2019-03-13T21:18:20.025Z,94517.14
2019-03-13T21:21:27.602Z,94508.41
2019-03-13T21:24:35.216Z,94505.13
2019-03-13T21:27:42.943Z,94509.48
2019-03-13T21:30:50.335Z,94508.95
2019-03-13T21:33:57.607Z,94514.91
2019-03-13T21:37:04.995Z,94508.47
2019-03-13T21:40:14.100Z,94514.99
2019-03-13T21:43:21.552Z,94521.66
2019-03-13T21:46:29.280Z,94517.79
2019-03-13T21:49:36.561Z,94530.26
2019-03-13T21:52:44.130Z,94527.92
2019-03-13T21:55:51.705Z,94528.92
2019-03-13T21:58:59.273Z,94527.07
2019-03-13T22:02:07.072Z,94535.12
2019-03-13T22:05:25.094Z,94536.59
2019-03-13T22:08:23.914Z,94542.80
2019-03-13T22:11:31.573Z,94538.18
2019-03-13T22:14:38.886Z,94526.03
2019-03-13T22:17:46.448Z,94523.54
2019-03-13T22:20:53.740Z,94523.86
2019-03-13T22:24:01.253Z,94527.19
2019-03-13T22:27:09.151Z,94518.65
2019-03-13T22:30:18.914Z,94517.74
2019-03-13T22:33:26.369Z,94513.91
2019-03-13T22:36:33.691Z,94512.98
2019-03-13T22:39:40.988Z,94515.67
2019-03-13T22:42:48.452Z,94526.59
2019-03-13T22:45:55.987Z,94538.98
2019-03-13T22:49:03.638Z,94509.30
2019-03-13T22:52:11.062Z,94516.39
2019-03-13T22:55:18.973Z,94527.95
2019-03-13T22:58:26.253Z,94526.84
2019-03-13T23:01:35.538Z,94523.48
2019-03-13T23:04:43.506Z,94524.80
2019-03-13T23:07:51.311Z,94523.48
2019-03-13T23:10:59.237Z,94519.27
2019-03-13T23:14:06.808Z,94504.45
2019-03-13T23:17:14.079Z,94504.02
2019-03-13T23:20:21.548Z,94510.37
2019-03-13T23:23:29.609Z,94521.98
2019-03-13T23:26:37.107Z,94512.21
2019-03-13T23:29:44.911Z,94521.15
2019-03-13T23:32:52.918Z,94518.91
2019-03-13T23:36:00.413Z,94523.83
2019-03-13T23:39:08.327Z,94527.09
2019-03-13T23:42:16.122Z,94521.87
2019-03-13T23:45:23.591Z,94525.62
2019-03-13T23:48:30.805Z,94522.28
2019-03-13T23:51:38.525Z,94521.16
2019-03-13T23:54:46.005Z,94516.89
2019-03-13T23:57:53.309Z,94518.83
